sensor_id;sensor_type;location;lat;lon;timestamp;P1;durP1;ratioP1;P2;durP2;ratioP2
6689;SDS011;3382;51.576;8.076;2023-03-12T00:01:27;4.83;;;2.83;;
6689;SDS011;3382;51.576;8.076;2023-03-12T00:03:54;5.70;;;2.73;;
6689;SDS011;3382;51.576;8.076;2023-03-12T00:06:20;6.30;;;3.23;;
6689;SDS011;3382;51.576;8.076;2023-03-12T00:08:46;4.37;;;2.70;;
6689;SDS011;3382;51.576;8.076;2023-03-12T00:11:14;5.80;;;2.93;;
6689;SDS011;3382;51.576;8.076;2023-03-12T00:13:41;4.90;;;3.57;;
6689;SDS011;3382;51.576;8.076;2023-03-12T00:16:09;3.90;;;2.70;;
6689;SDS011;3382;51.576;8.076;2023-03-12T00:18:37;3.20;;;2.80;;
6689;SDS011;3382;51.576;8.076;2023-03-12T00:21:03;4.27;;;3.00;;
6689;SDS011;3382;51.576;8.076;2023-03-12T00:23:30;6.10;;;3.33;;
6689;SDS011;3382;51.576;8.076;2023-03-12T00:25:59;3.73;;;2.70;;
6689;SDS011;3382;51.576;8.076;2023-03-12T00:28:29;5.10;;;2.90;;
6689;SDS011;3382;51.576;8.076;2023-03-12T00:30:55;4.67;;;2.70;;
6689;SDS011;3382;51.576;8.076;2023-03-12T00:33:22;3.07;;;2.50;;
6689;SDS011;3382;51.576;8.076;2023-03-12T00:35:51;3.80;;;2.80;;
6689;SDS011;3382;51.576;8.076;2023-03-12T00:38:17;3.73;;;2.77;;
6689;SDS011;3382;51.576;8.076;2023-03-12T00:40:43;4.13;;;2.73;;
6689;SDS011;3382;51.576;8.076;2023-03-12T00:43:09;7.13;;;2.93;;
6689;SDS011;3382;51.576;8.076;2023-03-12T00:45:34;4.97;;;2.70;;
6689;SDS011;3382;51.576;8.076;2023-03-12T00:48:00;3.30;;;2.40;;
6689;SDS011;3382;51.576;8.076;2023-03-12T00:50:26;9.10;;;3.37;;
6689;SDS011;3382;51.576;8.076;2023-03-12T00:52:51;8.37;;;3.47;;
6689;SDS011;3382;51.576;8.076;2023-03-12T00:55:17;5.33;;;3.13;;
6689;SDS011;3382;51.576;8.076;2023-03-12T00:57:42;7.13;;;3.10;;
6689;SDS011;3382;51.576;8.076;2023-03-12T01:00:09;4.70;;;2.50;;
6689;SDS011;3382;51.576;8.076;2023-03-12T01:02:36;4.13;;;2.80;;
6689;SDS011;3382;51.576;8.076;2023-03-12T01:05:02;5.83;;;3.37;;
6689;SDS011;3382;51.576;8.076;2023-03-12T01:07:29;3.60;;;2.87;;
6689;SDS011;3382;51.576;8.076;2023-03-12T01:09:54;6.17;;;3.20;;
6689;SDS011;3382;51.576;8.076;2023-03-12T01:12:20;8.33;;;2.87;;
6689;SDS011;3382;51.576;8.076;2023-03-12T01:14:45;4.60;;;2.77;;
6689;SDS011;3382;51.576;8.076;2023-03-12T01:17:11;5.97;;;2.97;;
6689;SDS011;3382;51.576;8.076;2023-03-12T01:19:36;5.00;;;3.17;;
6689;SDS011;3382;51.576;8.076;2023-03-12T01:22:02;5.90;;;2.63;;
6689;SDS011;3382;51.576;8.076;2023-03-12T01:24:28;5.30;;;3.03;;
6689;SDS011;3382;51.576;8.076;2023-03-12T01:26:53;2.83;;;2.40;;
6689;SDS011;3382;51.576;8.076;2023-03-12T01:29:20;5.67;;;3.20;;
6689;SDS011;3382;51.576;8.076;2023-03-12T01:31:46;3.60;;;2.90;;
6689;SDS011;3382;51.576;8.076;2023-03-12T01:34:12;3.83;;;3.20;;
6689;SDS011;3382;51.576;8.076;2023-03-12T01:36:38;3.97;;;2.90;;
6689;SDS011;3382;51.576;8.076;2023-03-12T01:39:03;4.40;;;2.60;;
6689;SDS011;3382;51.576;8.076;2023-03-12T01:41:30;3.33;;;2.93;;
6689;SDS011;3382;51.576;8.076;2023-03-12T01:43:56;3.13;;;2.80;;
6689;SDS011;3382;51.576;8.076;2023-03-12T01:49:23;4.20;;;2.70;;
6689;SDS011;3382;51.576;8.076;2023-03-12T01:56:57;5.97;;;3.70;;
6689;SDS011;3382;51.576;8.076;2023-03-12T01:59:27;6.13;;;2.57;;
6689;SDS011;3382;51.576;8.076;2023-03-12T02:02:01;4.23;;;2.97;;
6689;SDS011;3382;51.576;8.076;2023-03-12T02:04:27;5.07;;;2.60;;
6689;SDS011;3382;51.576;8.076;2023-03-12T02:07:02;4.33;;;2.73;;
6689;SDS011;3382;51.576;8.076;2023-03-12T02:09:34;3.40;;;2.70;;
6689;SDS011;3382;51.576;8.076;2023-03-12T02:12:03;5.37;;;2.90;;
6689;SDS011;3382;51.576;8.076;2023-03-12T02:14:29;7.10;;;3.00;;
6689;SDS011;3382;51.576;8.076;2023-03-12T02:16:55;5.07;;;2.60;;
6689;SDS011;3382;51.576;8.076;2023-03-12T02:22:04;3.93;;;2.80;;
6689;SDS011;3382;51.576;8.076;2023-03-12T02:24:33;3.83;;;2.87;;
6689;SDS011;3382;51.576;8.076;2023-03-12T02:27:03;3.67;;;2.90;;
6689;SDS011;3382;51.576;8.076;2023-03-12T02:29:30;5.63;;;2.80;;
6689;SDS011;3382;51.576;8.076;2023-03-12T02:31:58;8.37;;;2.80;;
6689;SDS011;3382;51.576;8.076;2023-03-12T02:34:26;3.03;;;2.60;;
6689;SDS011;3382;51.576;8.076;2023-03-12T02:36:52;4.67;;;3.00;;
6689;SDS011;3382;51.576;8.076;2023-03-12T02:39:18;3.07;;;2.40;;
6689;SDS011;3382;51.576;8.076;2023-03-12T02:41:45;4.47;;;2.57;;
6689;SDS011;3382;51.576;8.076;2023-03-12T02:44:21;4.13;;;2.70;;
6689;SDS011;3382;51.576;8.076;2023-03-12T02:46:56;4.30;;;2.60;;
6689;SDS011;3382;51.576;8.076;2023-03-12T02:49:25;4.63;;;2.43;;
6689;SDS011;3382;51.576;8.076;2023-03-12T02:51:54;4.20;;;2.30;;
6689;SDS011;3382;51.576;8.076;2023-03-12T02:54:20;7.00;;;2.87;;
6689;SDS011;3382;51.576;8.076;2023-03-12T02:56:47;3.33;;;2.20;;
6689;SDS011;3382;51.576;8.076;2023-03-12T02:59:13;5.63;;;2.67;;
6689;SDS011;3382;51.576;8.076;2023-03-12T03:01:39;3.60;;;2.50;;
6689;SDS011;3382;51.576;8.076;2023-03-12T03:04:06;6.30;;;2.90;;
6689;SDS011;3382;51.576;8.076;2023-03-12T03:06:33;5.50;;;2.80;;
6689;SDS011;3382;51.576;8.076;2023-03-12T03:09:00;3.87;;;2.70;;
6689;SDS011;3382;51.576;8.076;2023-03-12T03:11:26;3.83;;;2.40;;
6689;SDS011;3382;51.576;8.076;2023-03-12T03:13:52;4.67;;;2.37;;
6689;SDS011;3382;51.576;8.076;2023-03-12T03:16:18;4.43;;;2.80;;
6689;SDS011;3382;51.576;8.076;2023-03-12T03:18:44;3.60;;;2.53;;
6689;SDS011;3382;51.576;8.076;2023-03-12T03:21:10;2.83;;;2.40;;
6689;SDS011;3382;51.576;8.076;2023-03-12T03:23:40;7.20;;;2.40;;
6689;SDS011;3382;51.576;8.076;2023-03-12T03:26:06;4.63;;;2.80;;
6689;SDS011;3382;51.576;8.076;2023-03-12T03:28:32;5.03;;;2.57;;
6689;SDS011;3382;51.576;8.076;2023-03-12T03:30:58;3.33;;;2.30;;
6689;SDS011;3382;51.576;8.076;2023-03-12T03:33:26;3.07;;;2.33;;
6689;SDS011;3382;51.576;8.076;2023-03-12T03:35:56;7.13;;;2.90;;
6689;SDS011;3382;51.576;8.076;2023-03-12T03:38:24;2.60;;;2.23;;
6689;SDS011;3382;51.576;8.076;2023-03-12T03:40:51;6.43;;;2.70;;
6689;SDS011;3382;51.576;8.076;2023-03-12T03:43:17;5.90;;;2.67;;
6689;SDS011;3382;51.576;8.076;2023-03-12T03:45:43;4.13;;;2.30;;
6689;SDS011;3382;51.576;8.076;2023-03-12T03:48:09;6.37;;;2.33;;
6689;SDS011;3382;51.576;8.076;2023-03-12T03:50:36;3.60;;;2.10;;
6689;SDS011;3382;51.576;8.076;2023-03-12T03:53:02;2.70;;;2.20;;
6689;SDS011;3382;51.576;8.076;2023-03-12T03:55:29;3.00;;;2.40;;
6689;SDS011;3382;51.576;8.076;2023-03-12T03:57:54;5.50;;;2.77;;
6689;SDS011;3382;51.576;8.076;2023-03-12T04:00:20;3.83;;;2.30;;
6689;SDS011;3382;51.576;8.076;2023-03-12T04:02:46;3.00;;;2.40;;
6689;SDS011;3382;51.576;8.076;2023-03-12T04:05:11;3.03;;;2.30;;
6689;SDS011;3382;51.576;8.076;2023-03-12T04:07:37;5.27;;;2.70;;
6689;SDS011;3382;51.576;8.076;2023-03-12T04:10:03;2.43;;;2.23;;
6689;SDS011;3382;51.576;8.076;2023-03-12T04:12:29;3.17;;;2.00;;
6689;SDS011;3382;51.576;8.076;2023-03-12T04:14:55;4.63;;;2.37;;
6689;SDS011;3382;51.576;8.076;2023-03-12T04:17:21;4.80;;;2.37;;
6689;SDS011;3382;51.576;8.076;2023-03-12T04:19:47;4.17;;;2.10;;
6689;SDS011;3382;51.576;8.076;2023-03-12T04:22:12;4.20;;;2.10;;
6689;SDS011;3382;51.576;8.076;2023-03-12T04:24:38;3.33;;;2.10;;
6689;SDS011;3382;51.576;8.076;2023-03-12T04:27:04;6.40;;;2.30;;
6689;SDS011;3382;51.576;8.076;2023-03-12T04:29:29;5.30;;;2.43;;
6689;SDS011;3382;51.576;8.076;2023-03-12T04:31:55;5.03;;;2.00;;
6689;SDS011;3382;51.576;8.076;2023-03-12T04:34:21;3.40;;;2.33;;
6689;SDS011;3382;51.576;8.076;2023-03-12T04:36:46;6.67;;;2.10;;
6689;SDS011;3382;51.576;8.076;2023-03-12T04:39:12;5.57;;;2.57;;
6689;SDS011;3382;51.576;8.076;2023-03-12T04:41:40;3.13;;;1.93;;
6689;SDS011;3382;51.576;8.076;2023-03-12T04:44:06;3.23;;;2.30;;
6689;SDS011;3382;51.576;8.076;2023-03-12T04:46:31;4.37;;;1.97;;
6689;SDS011;3382;51.576;8.076;2023-03-12T04:48:57;5.50;;;2.20;;
6689;SDS011;3382;51.576;8.076;2023-03-12T04:51:26;7.57;;;2.67;;
6689;SDS011;3382;51.576;8.076;2023-03-12T04:53:52;4.03;;;1.93;;
6689;SDS011;3382;51.576;8.076;2023-03-12T04:56:17;6.20;;;2.20;;
6689;SDS011;3382;51.576;8.076;2023-03-12T04:58:43;3.30;;;2.47;;
6689;SDS011;3382;51.576;8.076;2023-03-12T05:01:13;3.93;;;2.40;;
6689;SDS011;3382;51.576;8.076;2023-03-12T05:03:52;4.50;;;2.30;;
6689;SDS011;3382;51.576;8.076;2023-03-12T05:06:18;5.10;;;2.67;;
6689;SDS011;3382;51.576;8.076;2023-03-12T05:08:44;3.00;;;2.17;;
6689;SDS011;3382;51.576;8.076;2023-03-12T05:11:10;4.07;;;2.53;;
6689;SDS011;3382;51.576;8.076;2023-03-12T05:13:36;3.37;;;2.10;;
6689;SDS011;3382;51.576;8.076;2023-03-12T05:16:02;7.17;;;2.37;;
6689;SDS011;3382;51.576;8.076;2023-03-12T05:18:28;2.87;;;2.03;;
6689;SDS011;3382;51.576;8.076;2023-03-12T05:20:57;7.20;;;2.20;;
6689;SDS011;3382;51.576;8.076;2023-03-12T05:23:27;2.80;;;2.00;;
6689;SDS011;3382;51.576;8.076;2023-03-12T05:25:53;4.43;;;1.60;;
6689;SDS011;3382;51.576;8.076;2023-03-12T05:28:19;3.50;;;1.90;;
6689;SDS011;3382;51.576;8.076;2023-03-12T05:30:45;2.57;;;1.90;;
6689;SDS011;3382;51.576;8.076;2023-03-12T05:33:11;5.07;;;2.10;;
6689;SDS011;3382;51.576;8.076;2023-03-12T05:35:37;4.07;;;2.07;;
6689;SDS011;3382;51.576;8.076;2023-03-12T05:38:02;4.50;;;2.00;;
6689;SDS011;3382;51.576;8.076;2023-03-12T05:40:28;7.93;;;3.10;;
6689;SDS011;3382;51.576;8.076;2023-03-12T05:42:54;4.70;;;2.00;;
6689;SDS011;3382;51.576;8.076;2023-03-12T05:45:20;3.10;;;1.90;;
6689;SDS011;3382;51.576;8.076;2023-03-12T05:47:45;3.63;;;1.97;;
6689;SDS011;3382;51.576;8.076;2023-03-12T05:50:11;2.37;;;1.93;;
6689;SDS011;3382;51.576;8.076;2023-03-12T05:52:37;5.93;;;2.20;;
6689;SDS011;3382;51.576;8.076;2023-03-12T05:55:02;5.70;;;2.00;;
6689;SDS011;3382;51.576;8.076;2023-03-12T05:57:28;3.53;;;2.10;;
6689;SDS011;3382;51.576;8.076;2023-03-12T05:59:54;3.23;;;1.83;;
6689;SDS011;3382;51.576;8.076;2023-03-12T06:02:19;3.40;;;1.93;;
6689;SDS011;3382;51.576;8.076;2023-03-12T06:04:45;4.23;;;2.30;;
6689;SDS011;3382;51.576;8.076;2023-03-12T06:07:11;3.33;;;2.17;;
6689;SDS011;3382;51.576;8.076;2023-03-12T06:09:36;4.63;;;2.47;;
6689;SDS011;3382;51.576;8.076;2023-03-12T06:12:02;6.40;;;2.03;;
6689;SDS011;3382;51.576;8.076;2023-03-12T06:14:28;7.23;;;2.23;;
6689;SDS011;3382;51.576;8.076;2023-03-12T06:16:53;3.53;;;2.50;;
6689;SDS011;3382;51.576;8.076;2023-03-12T06:19:19;4.00;;;1.97;;
6689;SDS011;3382;51.576;8.076;2023-03-12T06:21:45;4.87;;;1.90;;
6689;SDS011;3382;51.576;8.076;2023-03-12T06:24:10;3.73;;;1.97;;
6689;SDS011;3382;51.576;8.076;2023-03-12T06:26:36;5.13;;;2.07;;
6689;SDS011;3382;51.576;8.076;2023-03-12T06:29:02;3.87;;;2.53;;
6689;SDS011;3382;51.576;8.076;2023-03-12T06:31:27;2.83;;;1.83;;
6689;SDS011;3382;51.576;8.076;2023-03-12T06:33:53;3.50;;;2.10;;
6689;SDS011;3382;51.576;8.076;2023-03-12T06:36:19;3.53;;;1.87;;
6689;SDS011;3382;51.576;8.076;2023-03-12T06:38:45;6.03;;;1.90;;
6689;SDS011;3382;51.576;8.076;2023-03-12T06:41:14;4.37;;;2.00;;
6689;SDS011;3382;51.576;8.076;2023-03-12T06:43:42;2.77;;;2.20;;
6689;SDS011;3382;51.576;8.076;2023-03-12T06:46:09;3.27;;;1.90;;
6689;SDS011;3382;51.576;8.076;2023-03-12T06:48:37;3.07;;;1.90;;
6689;SDS011;3382;51.576;8.076;2023-03-12T06:51:05;4.80;;;2.07;;
6689;SDS011;3382;51.576;8.076;2023-03-12T06:53:32;2.20;;;1.47;;
6689;SDS011;3382;51.576;8.076;2023-03-12T06:55:58;4.17;;;1.60;;
6689;SDS011;3382;51.576;8.076;2023-03-12T06:58:24;3.87;;;1.77;;
6689;SDS011;3382;51.576;8.076;2023-03-12T07:00:50;4.73;;;1.83;;
6689;SDS011;3382;51.576;8.076;2023-03-12T07:03:16;13.33;;;2.20;;
6689;SDS011;3382;51.576;8.076;2023-03-12T07:05:43;3.80;;;1.90;;
6689;SDS011;3382;51.576;8.076;2023-03-12T07:08:09;5.07;;;2.43;;
6689;SDS011;3382;51.576;8.076;2023-03-12T07:10:35;3.97;;;1.87;;
6689;SDS011;3382;51.576;8.076;2023-03-12T07:13:01;2.17;;;1.90;;
6689;SDS011;3382;51.576;8.076;2023-03-12T07:15:27;7.77;;;1.90;;
6689;SDS011;3382;51.576;8.076;2023-03-12T07:17:52;4.77;;;1.77;;
6689;SDS011;3382;51.576;8.076;2023-03-12T07:20:18;4.73;;;2.03;;
6689;SDS011;3382;51.576;8.076;2023-03-12T07:22:44;2.87;;;2.00;;
6689;SDS011;3382;51.576;8.076;2023-03-12T07:25:09;2.87;;;2.20;;
6689;SDS011;3382;51.576;8.076;2023-03-12T07:27:36;2.23;;;1.80;;
6689;SDS011;3382;51.576;8.076;2023-03-12T07:30:02;7.17;;;1.90;;
6689;SDS011;3382;51.576;8.076;2023-03-12T07:32:28;6.90;;;2.27;;
6689;SDS011;3382;51.576;8.076;2023-03-12T07:34:54;3.80;;;1.90;;
6689;SDS011;3382;51.576;8.076;2023-03-12T07:37:20;5.10;;;2.00;;
6689;SDS011;3382;51.576;8.076;2023-03-12T07:39:46;5.23;;;1.93;;
6689;SDS011;3382;51.576;8.076;2023-03-12T07:42:15;3.47;;;1.90;;
6689;SDS011;3382;51.576;8.076;2023-03-12T07:44:40;5.50;;;1.90;;
6689;SDS011;3382;51.576;8.076;2023-03-12T07:47:06;9.93;;;2.90;;
6689;SDS011;3382;51.576;8.076;2023-03-12T07:49:32;3.53;;;1.97;;
6689;SDS011;3382;51.576;8.076;2023-03-12T07:51:57;2.90;;;1.80;;
6689;SDS011;3382;51.576;8.076;2023-03-12T07:54:23;4.00;;;2.33;;
6689;SDS011;3382;51.576;8.076;2023-03-12T07:56:54;7.20;;;2.30;;
6689;SDS011;3382;51.576;8.076;2023-03-12T07:59:22;3.67;;;1.63;;
6689;SDS011;3382;51.576;8.076;2023-03-12T08:01:49;4.30;;;2.20;;
6689;SDS011;3382;51.576;8.076;2023-03-12T08:04:15;3.50;;;1.90;;
6689;SDS011;3382;51.576;8.076;2023-03-12T08:06:40;2.30;;;1.87;;
6689;SDS011;3382;51.576;8.076;2023-03-12T08:09:09;4.33;;;2.13;;
6689;SDS011;3382;51.576;8.076;2023-03-12T08:11:35;4.47;;;2.33;;
6689;SDS011;3382;51.576;8.076;2023-03-12T08:14:01;5.43;;;2.67;;
6689;SDS011;3382;51.576;8.076;2023-03-12T08:16:27;7.90;;;2.33;;
6689;SDS011;3382;51.576;8.076;2023-03-12T08:18:53;6.63;;;2.60;;
6689;SDS011;3382;51.576;8.076;2023-03-12T08:21:19;3.13;;;2.23;;
6689;SDS011;3382;51.576;8.076;2023-03-12T08:23:44;3.80;;;2.80;;
6689;SDS011;3382;51.576;8.076;2023-03-12T08:26:10;5.67;;;2.40;;
6689;SDS011;3382;51.576;8.076;2023-03-12T08:28:36;5.67;;;2.30;;
6689;SDS011;3382;51.576;8.076;2023-03-12T08:31:01;7.13;;;3.17;;
6689;SDS011;3382;51.576;8.076;2023-03-12T08:33:27;6.17;;;2.90;;
6689;SDS011;3382;51.576;8.076;2023-03-12T08:35:53;5.13;;;2.67;;
6689;SDS011;3382;51.576;8.076;2023-03-12T08:38:19;4.53;;;2.77;;
6689;SDS011;3382;51.576;8.076;2023-03-12T08:40:45;5.13;;;2.60;;
6689;SDS011;3382;51.576;8.076;2023-03-12T08:43:10;4.03;;;2.60;;
6689;SDS011;3382;51.576;8.076;2023-03-12T08:45:36;3.83;;;2.20;;
6689;SDS011;3382;51.576;8.076;2023-03-12T08:48:02;4.33;;;3.00;;
6689;SDS011;3382;51.576;8.076;2023-03-12T08:50:29;5.67;;;2.73;;
6689;SDS011;3382;51.576;8.076;2023-03-12T08:52:56;6.23;;;3.03;;
6689;SDS011;3382;51.576;8.076;2023-03-12T08:55:22;3.37;;;2.50;;
6689;SDS011;3382;51.576;8.076;2023-03-12T08:57:48;2.40;;;2.20;;
6689;SDS011;3382;51.576;8.076;2023-03-12T09:00:14;5.10;;;2.27;;
6689;SDS011;3382;51.576;8.076;2023-03-12T09:02:42;4.83;;;2.43;;
6689;SDS011;3382;51.576;8.076;2023-03-12T09:05:09;3.83;;;2.27;;
6689;SDS011;3382;51.576;8.076;2023-03-12T09:07:35;3.10;;;2.50;;
6689;SDS011;3382;51.576;8.076;2023-03-12T09:10:01;1.70;;;1.60;;
6689;SDS011;3382;51.576;8.076;2023-03-12T09:12:27;3.43;;;2.07;;
6689;SDS011;3382;51.576;8.076;2023-03-12T09:14:53;3.23;;;1.90;;
6689;SDS011;3382;51.576;8.076;2023-03-12T09:17:19;2.90;;;2.50;;
6689;SDS011;3382;51.576;8.076;2023-03-12T09:19:44;4.43;;;2.17;;
6689;SDS011;3382;51.576;8.076;2023-03-12T09:22:10;4.63;;;2.40;;
6689;SDS011;3382;51.576;8.076;2023-03-12T09:24:36;4.73;;;1.83;;
6689;SDS011;3382;51.576;8.076;2023-03-12T09:27:02;3.00;;;1.93;;
6689;SDS011;3382;51.576;8.076;2023-03-12T09:29:30;3.80;;;2.53;;
6689;SDS011;3382;51.576;8.076;2023-03-12T09:31:57;4.50;;;2.57;;
6689;SDS011;3382;51.576;8.076;2023-03-12T09:34:22;4.07;;;2.20;;
6689;SDS011;3382;51.576;8.076;2023-03-12T09:36:48;4.97;;;2.67;;
6689;SDS011;3382;51.576;8.076;2023-03-12T09:39:14;4.60;;;2.80;;
6689;SDS011;3382;51.576;8.076;2023-03-12T09:41:42;4.53;;;2.50;;
6689;SDS011;3382;51.576;8.076;2023-03-12T09:46:47;2.17;;;1.97;;
6689;SDS011;3382;51.576;8.076;2023-03-12T09:49:31;1.67;;;1.40;;
6689;SDS011;3382;51.576;8.076;2023-03-12T09:52:09;6.10;;;2.73;;
6689;SDS011;3382;51.576;8.076;2023-03-12T09:57:26;3.60;;;2.30;;
6689;SDS011;3382;51.576;8.076;2023-03-12T09:59:53;2.90;;;1.43;;
6689;SDS011;3382;51.576;8.076;2023-03-12T10:02:43;2.87;;;2.03;;
6689;SDS011;3382;51.576;8.076;2023-03-12T10:24:06;1.13;;;1.13;;
6689;SDS011;3382;51.576;8.076;2023-03-12T10:26:51;1.87;;;1.47;;
6689;SDS011;3382;51.576;8.076;2023-03-12T10:29:29;3.27;;;2.47;;
6689;SDS011;3382;51.576;8.076;2023-03-12T10:32:34;2.20;;;1.00;;
6689;SDS011;3382;51.576;8.076;2023-03-12T10:35:01;2.57;;;1.40;;
6689;SDS011;3382;51.576;8.076;2023-03-12T10:37:45;2.47;;;1.67;;
6689;SDS011;3382;51.576;8.076;2023-03-12T10:40:20;1.70;;;1.60;;
6689;SDS011;3382;51.576;8.076;2023-03-12T10:42:51;1.47;;;1.13;;
6689;SDS011;3382;51.576;8.076;2023-03-12T10:45:38;0.77;;;0.77;;
6689;SDS011;3382;51.576;8.076;2023-03-12T10:48:22;1.93;;;0.90;;
6689;SDS011;3382;51.576;8.076;2023-03-12T10:50:59;0.90;;;0.90;;
6689;SDS011;3382;51.576;8.076;2023-03-12T10:53:30;1.53;;;1.40;;
6689;SDS011;3382;51.576;8.076;2023-03-12T10:55:59;0.90;;;0.90;;
6689;SDS011;3382;51.576;8.076;2023-03-12T10:58:32;1.20;;;1.10;;
6689;SDS011;3382;51.576;8.076;2023-03-12T11:01:03;1.00;;;1.00;;
6689;SDS011;3382;51.576;8.076;2023-03-12T11:03:30;2.90;;;2.23;;
6689;SDS011;3382;51.576;8.076;2023-03-12T11:05:59;1.10;;;1.00;;
6689;SDS011;3382;51.576;8.076;2023-03-12T11:08:36;1.50;;;1.40;;
6689;SDS011;3382;51.576;8.076;2023-03-12T11:11:03;2.43;;;1.50;;
6689;SDS011;3382;51.576;8.076;2023-03-12T11:18:54;1.23;;;1.13;;
6689;SDS011;3382;51.576;8.076;2023-03-12T11:21:21;2.57;;;1.40;;
6689;SDS011;3382;51.576;8.076;2023-03-12T11:26:23;0.97;;;0.97;;
6689;SDS011;3382;51.576;8.076;2023-03-12T11:28:58;1.37;;;0.93;;
6689;SDS011;3382;51.576;8.076;2023-03-12T11:31:40;2.37;;;1.53;;
6689;SDS011;3382;51.576;8.076;2023-03-12T11:34:29;1.47;;;1.37;;
6689;SDS011;3382;51.576;8.076;2023-03-12T11:42:49;1.30;;;1.20;;
6689;SDS011;3382;51.576;8.076;2023-03-12T11:45:30;1.40;;;1.30;;
6689;SDS011;3382;51.576;8.076;2023-03-12T11:53:48;1.93;;;1.20;;
6689;SDS011;3382;51.576;8.076;2023-03-12T11:56:25;0.90;;;0.83;;
6689;SDS011;3382;51.576;8.076;2023-03-12T12:15:51;1.00;;;0.90;;
6689;SDS011;3382;51.576;8.076;2023-03-12T12:23:53;1.83;;;0.77;;
6689;SDS011;3382;51.576;8.076;2023-03-12T12:34:46;0.97;;;0.97;;
6689;SDS011;3382;51.576;8.076;2023-03-12T12:37:28;1.47;;;0.90;;
6689;SDS011;3382;51.576;8.076;2023-03-12T12:40:06;0.93;;;0.80;;
6689;SDS011;3382;51.576;8.076;2023-03-12T12:43:04;0.80;;;0.73;;
6689;SDS011;3382;51.576;8.076;2023-03-12T12:45:34;1.00;;;0.90;;
6689;SDS011;3382;51.576;8.076;2023-03-12T12:48:15;0.70;;;0.70;;
6689;SDS011;3382;51.576;8.076;2023-03-12T12:51:01;0.77;;;0.70;;
6689;SDS011;3382;51.576;8.076;2023-03-12T12:53:35;0.67;;;0.53;;
6689;SDS011;3382;51.576;8.076;2023-03-12T13:01:12;1.00;;;0.80;;
6689;SDS011;3382;51.576;8.076;2023-03-12T13:03:38;2.00;;;1.10;;
6689;SDS011;3382;51.576;8.076;2023-03-12T13:06:05;0.90;;;0.70;;
6689;SDS011;3382;51.576;8.076;2023-03-12T13:13:45;1.67;;;1.13;;
6689;SDS011;3382;51.576;8.076;2023-03-12T13:16:33;0.97;;;0.90;;
6689;SDS011;3382;51.576;8.076;2023-03-12T13:27:23;0.70;;;0.70;;
6689;SDS011;3382;51.576;8.076;2023-03-12T13:43:01;0.80;;;0.80;;
6689;SDS011;3382;51.576;8.076;2023-03-12T13:48:32;1.00;;;0.80;;
6689;SDS011;3382;51.576;8.076;2023-03-12T13:51:20;0.80;;;0.80;;
6689;SDS011;3382;51.576;8.076;2023-03-12T13:53:57;1.10;;;1.10;;
6689;SDS011;3382;51.576;8.076;2023-03-12T13:56:29;0.83;;;0.83;;
6689;SDS011;3382;51.576;8.076;2023-03-12T13:59:00;0.60;;;0.60;;
6689;SDS011;3382;51.576;8.076;2023-03-12T14:01:29;0.73;;;0.60;;
6689;SDS011;3382;51.576;8.076;2023-03-12T14:04:12;0.87;;;0.60;;
6689;SDS011;3382;51.576;8.076;2023-03-12T14:17:33;1.20;;;0.77;;
6689;SDS011;3382;51.576;8.076;2023-03-12T14:20:00;0.70;;;0.70;;
6689;SDS011;3382;51.576;8.076;2023-03-12T14:22:31;1.20;;;1.10;;
6689;SDS011;3382;51.576;8.076;2023-03-12T14:25:04;0.90;;;0.90;;
6689;SDS011;3382;51.576;8.076;2023-03-12T14:27:37;0.90;;;0.90;;
6689;SDS011;3382;51.576;8.076;2023-03-12T14:32:47;0.80;;;0.80;;
6689;SDS011;3382;51.576;8.076;2023-03-12T14:37:57;0.70;;;0.70;;
6689;SDS011;3382;51.576;8.076;2023-03-12T14:40:39;1.20;;;0.80;;
6689;SDS011;3382;51.576;8.076;2023-03-12T14:43:18;1.77;;;1.00;;
6689;SDS011;3382;51.576;8.076;2023-03-12T14:45:56;1.00;;;0.90;;
6689;SDS011;3382;51.576;8.076;2023-03-12T14:48:26;0.70;;;0.70;;
6689;SDS011;3382;51.576;8.076;2023-03-12T14:50:54;0.50;;;0.50;;
6689;SDS011;3382;51.576;8.076;2023-03-12T14:53:35;2.10;;;1.57;;
6689;SDS011;3382;51.576;8.076;2023-03-12T14:58:58;1.10;;;1.00;;
6689;SDS011;3382;51.576;8.076;2023-03-12T15:01:29;1.27;;;0.83;;
6689;SDS011;3382;51.576;8.076;2023-03-12T15:03:58;0.77;;;0.77;;
6689;SDS011;3382;51.576;8.076;2023-03-12T15:06:33;1.30;;;0.90;;
6689;SDS011;3382;51.576;8.076;2023-03-12T15:09:02;1.20;;;0.83;;
6689;SDS011;3382;51.576;8.076;2023-03-12T15:11:30;0.93;;;0.90;;
6689;SDS011;3382;51.576;8.076;2023-03-12T15:14:06;0.50;;;0.50;;
6689;SDS011;3382;51.576;8.076;2023-03-12T15:16:36;1.03;;;0.97;;
6689;SDS011;3382;51.576;8.076;2023-03-12T15:19:03;1.13;;;1.07;;
6689;SDS011;3382;51.576;8.076;2023-03-12T15:21:31;1.03;;;0.73;;
6689;SDS011;3382;51.576;8.076;2023-03-12T15:23:58;3.60;;;1.53;;
6689;SDS011;3382;51.576;8.076;2023-03-12T15:26:26;0.90;;;0.90;;
6689;SDS011;3382;51.576;8.076;2023-03-12T15:29:17;1.20;;;1.10;;
6689;SDS011;3382;51.576;8.076;2023-03-12T15:31:56;1.00;;;1.00;;
6689;SDS011;3382;51.576;8.076;2023-03-12T15:34:33;2.97;;;1.53;;
6689;SDS011;3382;51.576;8.076;2023-03-12T15:37:02;0.97;;;0.80;;
6689;SDS011;3382;51.576;8.076;2023-03-12T15:39:52;1.40;;;0.80;;
6689;SDS011;3382;51.576;8.076;2023-03-12T15:42:20;1.23;;;1.13;;
6689;SDS011;3382;51.576;8.076;2023-03-12T15:44:57;1.20;;;1.10;;
6689;SDS011;3382;51.576;8.076;2023-03-12T15:47:27;1.10;;;1.00;;
6689;SDS011;3382;51.576;8.076;2023-03-12T15:50:00;1.07;;;1.00;;
6689;SDS011;3382;51.576;8.076;2023-03-12T15:52:32;1.50;;;1.00;;
6689;SDS011;3382;51.576;8.076;2023-03-12T15:57:25;1.77;;;1.13;;
6689;SDS011;3382;51.576;8.076;2023-03-12T16:05:26;1.10;;;0.87;;
6689;SDS011;3382;51.576;8.076;2023-03-12T16:07:58;1.63;;;1.13;;
6689;SDS011;3382;51.576;8.076;2023-03-12T16:10:53;1.30;;;1.00;;
6689;SDS011;3382;51.576;8.076;2023-03-12T16:13:21;1.60;;;1.20;;
6689;SDS011;3382;51.576;8.076;2023-03-12T16:15:52;4.80;;;2.10;;
6689;SDS011;3382;51.576;8.076;2023-03-12T16:18:19;1.20;;;1.10;;
6689;SDS011;3382;51.576;8.076;2023-03-12T16:20:47;1.07;;;0.90;;
6689;SDS011;3382;51.576;8.076;2023-03-12T16:23:14;1.90;;;1.30;;
6689;SDS011;3382;51.576;8.076;2023-03-12T16:25:45;1.20;;;0.97;;
6689;SDS011;3382;51.576;8.076;2023-03-12T16:28:14;1.37;;;1.23;;
6689;SDS011;3382;51.576;8.076;2023-03-12T16:30:42;1.97;;;1.20;;
6689;SDS011;3382;51.576;8.076;2023-03-12T16:33:11;2.80;;;1.47;;
6689;SDS011;3382;51.576;8.076;2023-03-12T16:35:41;1.83;;;1.03;;
6689;SDS011;3382;51.576;8.076;2023-03-12T16:38:07;1.97;;;1.00;;
6689;SDS011;3382;51.576;8.076;2023-03-12T16:40:34;1.50;;;1.07;;
6689;SDS011;3382;51.576;8.076;2023-03-12T16:43:02;2.13;;;1.10;;
6689;SDS011;3382;51.576;8.076;2023-03-12T16:45:32;2.90;;;1.30;;
6689;SDS011;3382;51.576;8.076;2023-03-12T16:48:00;1.60;;;1.17;;
6689;SDS011;3382;51.576;8.076;2023-03-12T16:50:28;3.93;;;1.63;;
6689;SDS011;3382;51.576;8.076;2023-03-12T16:52:54;2.30;;;1.20;;
6689;SDS011;3382;51.576;8.076;2023-03-12T16:55:24;1.20;;;1.10;;
6689;SDS011;3382;51.576;8.076;2023-03-12T16:57:53;2.97;;;1.17;;
6689;SDS011;3382;51.576;8.076;2023-03-12T17:00:22;2.17;;;1.33;;
6689;SDS011;3382;51.576;8.076;2023-03-12T17:02:50;1.80;;;1.27;;
6689;SDS011;3382;51.576;8.076;2023-03-12T17:05:21;1.70;;;1.20;;
6689;SDS011;3382;51.576;8.076;2023-03-12T17:07:47;1.37;;;1.10;;
6689;SDS011;3382;51.576;8.076;2023-03-12T17:10:13;1.13;;;1.03;;
6689;SDS011;3382;51.576;8.076;2023-03-12T17:12:40;5.27;;;2.30;;
6689;SDS011;3382;51.576;8.076;2023-03-12T17:15:07;3.03;;;1.20;;
6689;SDS011;3382;51.576;8.076;2023-03-12T17:17:45;5.07;;;1.97;;
6689;SDS011;3382;51.576;8.076;2023-03-12T17:20:13;4.20;;;1.30;;
6689;SDS011;3382;51.576;8.076;2023-03-12T17:22:39;2.77;;;1.20;;
6689;SDS011;3382;51.576;8.076;2023-03-12T17:25:06;1.70;;;1.17;;
6689;SDS011;3382;51.576;8.076;2023-03-12T17:27:32;8.93;;;2.03;;
6689;SDS011;3382;51.576;8.076;2023-03-12T17:29:57;1.60;;;1.50;;
6689;SDS011;3382;51.576;8.076;2023-03-12T17:32:23;3.57;;;1.80;;
6689;SDS011;3382;51.576;8.076;2023-03-12T17:34:55;4.77;;;1.83;;
6689;SDS011;3382;51.576;8.076;2023-03-12T17:37:21;5.57;;;2.00;;
6689;SDS011;3382;51.576;8.076;2023-03-12T17:39:47;3.57;;;1.70;;
6689;SDS011;3382;51.576;8.076;2023-03-12T17:42:12;3.43;;;1.60;;
6689;SDS011;3382;51.576;8.076;2023-03-12T17:44:38;7.50;;;1.80;;
6689;SDS011;3382;51.576;8.076;2023-03-12T17:47:04;5.03;;;2.20;;
6689;SDS011;3382;51.576;8.076;2023-03-12T17:49:29;5.93;;;1.97;;
6689;SDS011;3382;51.576;8.076;2023-03-12T17:52:00;6.93;;;2.13;;